sensor_id;sensor_type;location;lat;lon;timestamp;pressure;altitude;pressure_sealevel;temperature;humidity
2673;BME280;1346;51.558;6.996;2022-09-29T00:02:21;99516.81;;;6.68;100.00
2673;BME280;1346;51.558;6.996;2022-09-29T00:04:48;99510.13;;;6.64;100.00
2673;BME280;1346;51.558;6.996;2022-09-29T00:07:15;99520.41;;;6.59;100.00
2673;BME280;1346;51.558;6.996;2022-09-29T00:09:42;99515.41;;;6.56;100.00
2673;BME280;1346;51.558;6.996;2022-09-29T00:12:10;99519.53;;;6.50;100.00
2673;BME280;1346;51.558;6.996;2022-09-29T00:14:37;99512.00;;;6.46;100.00
2673;BME280;1346;51.558;6.996;2022-09-29T00:17:04;99508.66;;;6.44;100.00
2673;BME280;1346;51.558;6.996;2022-09-29T00:19:31;99512.66;;;6.40;100.00
2673;BME280;1346;51.558;6.996;2022-09-29T00:21:59;99519.09;;;6.37;100.00
2673;BME280;1346;51.558;6.996;2022-09-29T00:24:26;99520.22;;;6.35;100.00
2673;BME280;1346;51.558;6.996;2022-09-29T00:26:54;99509.91;;;6.32;100.00
2673;BME280;1346;51.558;6.996;2022-09-29T00:29:22;99511.88;;;6.30;100.00
2673;BME280;1346;51.558;6.996;2022-09-29T00:31:49;99510.22;;;6.29;100.00
2673;BME280;1346;51.558;6.996;2022-09-29T00:34:16;99511.50;;;6.25;100.00
2673;BME280;1346;51.558;6.996;2022-09-29T00:36:43;99510.84;;;6.23;100.00
2673;BME280;1346;51.558;6.996;2022-09-29T00:39:11;99520.66;;;6.22;100.00
2673;BME280;1346;51.558;6.996;2022-09-29T00:41:40;99521.94;;;6.18;100.00
2673;BME280;1346;51.558;6.996;2022-09-29T00:45:00;99514.44;;;6.13;100.00
2673;BME280;1346;51.558;6.996;2022-09-29T00:47:29;99514.59;;;6.12;100.00
2673;BME280;1346;51.558;6.996;2022-09-29T00:50:01;99522.03;;;6.08;100.00
2673;BME280;1346;51.558;6.996;2022-09-29T00:52:33;99520.50;;;6.06;100.00
2673;BME280;1346;51.558;6.996;2022-09-29T00:55:05;99524.16;;;6.05;100.00
2673;BME280;1346;51.558;6.996;2022-09-29T00:57:38;99526.13;;;6.03;100.00
2673;BME280;1346;51.558;6.996;2022-09-29T01:00:12;99525.28;;;6.02;100.00
2673;BME280;1346;51.558;6.996;2022-09-29T01:02:44;99521.13;;;6.00;100.00
2673;BME280;1346;51.558;6.996;2022-09-29T01:05:16;99519.44;;;5.99;100.00
2673;BME280;1346;51.558;6.996;2022-09-29T01:07:44;99518.78;;;5.97;100.00
2673;BME280;1346;51.558;6.996;2022-09-29T01:10:13;99523.25;;;5.96;100.00
2673;BME280;1346;51.558;6.996;2022-09-29T01:12:42;99518.41;;;5.92;100.00
2673;BME280;1346;51.558;6.996;2022-09-29T01:15:11;99516.19;;;5.87;100.00
2673;BME280;1346;51.558;6.996;2022-09-29T01:17:38;99512.00;;;5.85;100.00
2673;BME280;1346;51.558;6.996;2022-09-29T01:20:11;99517.59;;;5.82;100.00
2673;BME280;1346;51.558;6.996;2022-09-29T01:23:27;99511.75;;;5.78;100.00
2673;BME280;1346;51.558;6.996;2022-09-29T01:26:41;99512.88;;;5.76;100.00
2673;BME280;1346;51.558;6.996;2022-09-29T01:32:30;99521.31;;;5.71;100.00
2673;BME280;1346;51.558;6.996;2022-09-29T01:35:08;99522.59;;;5.67;100.00
2673;BME280;1346;51.558;6.996;2022-09-29T01:37:52;99515.78;;;5.65;100.00
2673;BME280;1346;51.558;6.996;2022-09-29T01:40:29;99520.41;;;5.63;100.00
2673;BME280;1346;51.558;6.996;2022-09-29T01:43:03;99524.19;;;5.60;100.00
2673;BME280;1346;51.558;6.996;2022-09-29T01:45:34;99518.03;;;5.60;100.00
2673;BME280;1346;51.558;6.996;2022-09-29T01:48:06;99519.16;;;5.57;100.00
2673;BME280;1346;51.558;6.996;2022-09-29T01:50:38;99520.16;;;5.56;100.00
2673;BME280;1346;51.558;6.996;2022-09-29T01:53:12;99518.63;;;5.54;100.00
2673;BME280;1346;51.558;6.996;2022-09-29T01:55:44;99521.44;;;5.52;100.00
2673;BME280;1346;51.558;6.996;2022-09-29T01:58:16;99524.25;;;5.51;100.00
2673;BME280;1346;51.558;6.996;2022-09-29T02:00:56;99525.22;;;5.50;100.00
2673;BME280;1346;51.558;6.996;2022-09-29T02:03:30;99520.06;;;5.48;100.00
2673;BME280;1346;51.558;6.996;2022-09-29T02:06:00;99521.91;;;5.48;100.00
2673;BME280;1346;51.558;6.996;2022-09-29T02:08:35;99522.72;;;5.48;100.00
2673;BME280;1346;51.558;6.996;2022-09-29T02:11:06;99528.19;;;5.47;100.00
2673;BME280;1346;51.558;6.996;2022-09-29T02:13:38;99534.63;;;5.44;100.00
2673;BME280;1346;51.558;6.996;2022-09-29T02:16:09;99527.63;;;5.43;100.00
2673;BME280;1346;51.558;6.996;2022-09-29T02:18:47;99532.41;;;5.40;100.00
2673;BME280;1346;51.558;6.996;2022-09-29T02:21:14;99524.59;;;5.38;100.00
2673;BME280;1346;51.558;6.996;2022-09-29T02:23:41;99535.53;;;5.35;100.00
2673;BME280;1346;51.558;6.996;2022-09-29T02:26:09;99531.06;;;5.36;100.00
2673;BME280;1346;51.558;6.996;2022-09-29T02:28:37;99523.38;;;5.33;100.00
2673;BME280;1346;51.558;6.996;2022-09-29T02:31:05;99526.88;;;5.33;100.00
2673;BME280;1346;51.558;6.996;2022-09-29T02:33:32;99522.53;;;5.32;100.00
2673;BME280;1346;51.558;6.996;2022-09-29T02:36:15;99529.81;;;5.30;100.00
2673;BME280;1346;51.558;6.996;2022-09-29T02:38:51;99533.63;;;5.28;100.00
2673;BME280;1346;51.558;6.996;2022-09-29T02:41:38;99531.09;;;5.26;100.00
2673;BME280;1346;51.558;6.996;2022-09-29T02:44:22;99527.78;;;5.24;100.00
2673;BME280;1346;51.558;6.996;2022-09-29T02:47:14;99526.91;;;5.24;100.00
2673;BME280;1346;51.558;6.996;2022-09-29T02:50:30;99538.38;;;5.24;100.00
2673;BME280;1346;51.558;6.996;2022-09-29T02:53:08;99528.88;;;5.22;100.00
2673;BME280;1346;51.558;6.996;2022-09-29T02:55:42;99530.69;;;5.21;100.00
2673;BME280;1346;51.558;6.996;2022-09-29T02:58:17;99524.56;;;5.21;100.00
2673;BME280;1346;51.558;6.996;2022-09-29T03:00:46;99530.03;;;5.19;100.00
2673;BME280;1346;51.558;6.996;2022-09-29T03:03:13;99541.47;;;5.20;100.00
2673;BME280;1346;51.558;6.996;2022-09-29T03:05:40;99534.50;;;5.19;100.00
2673;BME280;1346;51.558;6.996;2022-09-29T03:08:08;99532.16;;;5.16;100.00
2673;BME280;1346;51.558;6.996;2022-09-29T03:10:35;99539.25;;;5.15;100.00
2673;BME280;1346;51.558;6.996;2022-09-29T03:13:02;99534.25;;;5.12;100.00
2673;BME280;1346;51.558;6.996;2022-09-29T03:15:29;99530.91;;;5.10;100.00
2673;BME280;1346;51.558;6.996;2022-09-29T03:17:56;99533.72;;;5.09;100.00
2673;BME280;1346;51.558;6.996;2022-09-29T03:20:23;99526.72;;;5.08;100.00
2673;BME280;1346;51.558;6.996;2022-09-29T03:22:54;99528.69;;;5.06;100.00
2673;BME280;1346;51.558;6.996;2022-09-29T03:25:22;99520.84;;;5.04;100.00
2673;BME280;1346;51.558;6.996;2022-09-29T03:27:49;99527.00;;;5.05;100.00
2673;BME280;1346;51.558;6.996;2022-09-29T03:30:17;99527.84;;;5.05;100.00
2673;BME280;1346;51.558;6.996;2022-09-29T03:32:44;99524.50;;;5.03;100.00
2673;BME280;1346;51.558;6.996;2022-09-29T03:35:11;99521.69;;;5.05;100.00
2673;BME280;1346;51.558;6.996;2022-09-29T03:37:38;99519.88;;;5.05;100.00
2673;BME280;1346;51.558;6.996;2022-09-29T03:40:07;99531.63;;;5.03;100.00
2673;BME280;1346;51.558;6.996;2022-09-29T03:42:35;99527.16;;;5.03;100.00
2673;BME280;1346;51.558;6.996;2022-09-29T03:45:03;99531.78;;;5.01;100.00
2673;BME280;1346;51.558;6.996;2022-09-29T03:47:30;99531.06;;;4.99;100.00
2673;BME280;1346;51.558;6.996;2022-09-29T03:49:58;99537.38;;;4.98;100.00
2673;BME280;1346;51.558;6.996;2022-09-29T03:52:24;99533.06;;;4.97;100.00
2673;BME280;1346;51.558;6.996;2022-09-29T03:54:51;99532.22;;;4.97;100.00
2673;BME280;1346;51.558;6.996;2022-09-29T03:57:18;99527.06;;;4.95;100.00
2673;BME280;1346;51.558;6.996;2022-09-29T03:59:46;99534.19;;;4.94;100.00
2673;BME280;1346;51.558;6.996;2022-09-29T04:02:14;99533.47;;;4.92;100.00
2673;BME280;1346;51.558;6.996;2022-09-29T04:04:43;99534.31;;;4.93;100.00
2673;BME280;1346;51.558;6.996;2022-09-29T04:07:10;99541.59;;;4.91;100.00
2673;BME280;1346;51.558;6.996;2022-09-29T04:09:37;99545.38;;;4.88;100.00
2673;BME280;1346;51.558;6.996;2022-09-29T04:12:04;99543.69;;;4.87;100.00
2673;BME280;1346;51.558;6.996;2022-09-29T04:14:31;99554.47;;;4.86;100.00
2673;BME280;1346;51.558;6.996;2022-09-29T04:16:59;99546.09;;;4.81;100.00
2673;BME280;1346;51.558;6.996;2022-09-29T04:19:26;99543.44;;;4.81;100.00
2673;BME280;1346;51.558;6.996;2022-09-29T04:21:53;99552.41;;;4.80;100.00
2673;BME280;1346;51.558;6.996;2022-09-29T04:24:20;99553.34;;;4.79;100.00
2673;BME280;1346;51.558;6.996;2022-09-29T04:26:47;99546.41;;;4.78;100.00
2673;BME280;1346;51.558;6.996;2022-09-29T04:29:14;99547.25;;;4.78;100.00
2673;BME280;1346;51.558;6.996;2022-09-29T04:31:41;99549.03;;;4.78;100.00
2673;BME280;1346;51.558;6.996;2022-09-29T04:34:09;99547.34;;;4.77;100.00
2673;BME280;1346;51.558;6.996;2022-09-29T04:36:36;99552.00;;;4.75;100.00
2673;BME280;1346;51.558;6.996;2022-09-29T04:39:04;99550.31;;;4.74;100.00
2673;BME280;1346;51.558;6.996;2022-09-29T04:41:31;99550.59;;;4.71;100.00
2673;BME280;1346;51.558;6.996;2022-09-29T04:44:01;99559.53;;;4.70;100.00
2673;BME280;1346;51.558;6.996;2022-09-29T04:46:28;99564.16;;;4.68;100.00
2673;BME280;1346;51.558;6.996;2022-09-29T04:48:55;99563.44;;;4.66;100.00
2673;BME280;1346;51.558;6.996;2022-09-29T04:51:23;99559.81;;;4.67;100.00
2673;BME280;1346;51.558;6.996;2022-09-29T04:53:50;99556.47;;;4.65;100.00
2673;BME280;1346;51.558;6.996;2022-09-29T04:56:18;99555.78;;;4.63;100.00
2673;BME280;1346;51.558;6.996;2022-09-29T04:58:45;99563.03;;;4.61;100.00
2673;BME280;1346;51.558;6.996;2022-09-29T05:01:12;99558.03;;;4.58;100.00
2673;BME280;1346;51.558;6.996;2022-09-29T05:03:40;99560.94;;;4.55;100.00
2673;BME280;1346;51.558;6.996;2022-09-29T05:06:08;99567.41;;;4.52;100.00
2673;BME280;1346;51.558;6.996;2022-09-29T05:08:38;99571.84;;;4.52;100.00
2673;BME280;1346;51.558;6.996;2022-09-29T05:11:06;99577.16;;;4.52;100.00
2673;BME280;1346;51.558;6.996;2022-09-29T05:13:33;99575.50;;;4.51;100.00
2673;BME280;1346;51.558;6.996;2022-09-29T05:16:01;99579.09;;;4.50;100.00
2673;BME280;1346;51.558;6.996;2022-09-29T05:18:29;99579.09;;;4.50;100.00
2673;BME280;1346;51.558;6.996;2022-09-29T05:21:01;99586.25;;;4.49;100.00
2673;BME280;1346;51.558;6.996;2022-09-29T05:23:28;99588.06;;;4.49;100.00
2673;BME280;1346;51.558;6.996;2022-09-29T05:26:00;99592.66;;;4.47;100.00
2673;BME280;1346;51.558;6.996;2022-09-29T05:28:28;99600.59;;;4.47;100.00
2673;BME280;1346;51.558;6.996;2022-09-29T05:30:59;99600.75;;;4.45;100.00
2673;BME280;1346;51.558;6.996;2022-09-29T05:33:27;99601.59;;;4.46;100.00
2673;BME280;1346;51.558;6.996;2022-09-29T05:35:54;99599.75;;;4.46;100.00
2673;BME280;1346;51.558;6.996;2022-09-29T05:38:21;99604.25;;;4.46;100.00
2673;BME280;1346;51.558;6.996;2022-09-29T05:40:48;99608.56;;;4.47;100.00
2673;BME280;1346;51.558;6.996;2022-09-29T05:43:16;99606.75;;;4.47;100.00
2673;BME280;1346;51.558;6.996;2022-09-29T05:45:43;99609.28;;;4.49;100.00
2673;BME280;1346;51.558;6.996;2022-09-29T05:48:10;99610.25;;;4.48;100.00
2673;BME280;1346;51.558;6.996;2022-09-29T05:50:37;99610.25;;;4.48;100.00
2673;BME280;1346;51.558;6.996;2022-09-29T05:53:06;99609.28;;;4.49;100.00
2673;BME280;1346;51.558;6.996;2022-09-29T05:55:34;99602.00;;;4.51;100.00
2673;BME280;1346;51.558;6.996;2022-09-29T05:58:01;99617.63;;;4.54;100.00
2673;BME280;1346;51.558;6.996;2022-09-29T06:00:30;99622.78;;;4.55;100.00
2673;BME280;1346;51.558;6.996;2022-09-29T06:02:57;99614.56;;;4.58;100.00
2673;BME280;1346;51.558;6.996;2022-09-29T06:05:25;99621.41;;;4.61;100.00
2673;BME280;1346;51.558;6.996;2022-09-29T06:07:52;99625.41;;;4.65;100.00
2673;BME280;1346;51.558;6.996;2022-09-29T06:10:19;99628.78;;;4.67;100.00
2673;BME280;1346;51.558;6.996;2022-09-29T06:12:46;99629.88;;;4.74;100.00
2673;BME280;1346;51.558;6.996;2022-09-29T06:15:14;99626.00;;;4.78;100.00
2673;BME280;1346;51.558;6.996;2022-09-29T06:17:42;99635.47;;;4.80;100.00
2673;BME280;1346;51.558;6.996;2022-09-29T06:20:11;99635.19;;;4.83;100.00
2673;BME280;1346;51.558;6.996;2022-09-29T06:22:38;99629.44;;;4.88;100.00
2673;BME280;1346;51.558;6.996;2022-09-29T06:25:06;99632.66;;;4.91;100.00
2673;BME280;1346;51.558;6.996;2022-09-29T06:27:33;99627.63;;;4.98;100.00
2673;BME280;1346;51.558;6.996;2022-09-29T06:30:00;99631.38;;;5.05;100.00
2673;BME280;1346;51.558;6.996;2022-09-29T06:32:27;99629.81;;;5.12;100.00
2673;BME280;1346;51.558;6.996;2022-09-29T06:34:56;99630.91;;;5.19;100.00
2673;BME280;1346;51.558;6.996;2022-09-29T06:37:42;99637.28;;;5.26;100.00
2673;BME280;1346;51.558;6.996;2022-09-29T06:40:12;99637.56;;;5.33;100.00
2673;BME280;1346;51.558;6.996;2022-09-29T06:42:39;99643.84;;;5.41;100.00
2673;BME280;1346;51.558;6.996;2022-09-29T06:45:08;99645.88;;;5.47;100.00
2673;BME280;1346;51.558;6.996;2022-09-29T06:47:35;99653.25;;;5.53;100.00
2673;BME280;1346;51.558;6.996;2022-09-29T06:50:05;99642.06;;;5.59;100.00
2673;BME280;1346;51.558;6.996;2022-09-29T06:52:32;99644.97;;;5.66;100.00
2673;BME280;1346;51.558;6.996;2022-09-29T06:54:59;99650.22;;;5.75;100.00
2673;BME280;1346;51.558;6.996;2022-09-29T06:57:26;99650.38;;;5.83;100.00
2673;BME280;1346;51.558;6.996;2022-09-29T06:59:53;99656.31;;;5.95;100.00
2673;BME280;1346;51.558;6.996;2022-09-29T07:02:20;99658.91;;;6.04;100.00
2673;BME280;1346;51.558;6.996;2022-09-29T07:04:47;99653.38;;;6.16;100.00
2673;BME280;1346;51.558;6.996;2022-09-29T07:07:15;99656.81;;;6.26;100.00
2673;BME280;1346;51.558;6.996;2022-09-29T07:09:42;99660.91;;;6.38;100.00
2673;BME280;1346;51.558;6.996;2022-09-29T07:12:09;99659.19;;;6.46;100.00
2673;BME280;1346;51.558;6.996;2022-09-29T07:14:37;99667.06;;;6.56;100.00
2673;BME280;1346;51.558;6.996;2022-09-29T07:17:04;99665.16;;;6.66;100.00
2673;BME280;1346;51.558;6.996;2022-09-29T07:19:30;99666.75;;;6.76;100.00
2673;BME280;1346;51.558;6.996;2022-09-29T07:21:58;99670.00;;;6.88;100.00
2673;BME280;1346;51.558;6.996;2022-09-29T07:24:26;99674.25;;;6.98;100.00
2673;BME280;1346;51.558;6.996;2022-09-29T07:26:53;99673.34;;;7.07;100.00
2673;BME280;1346;51.558;6.996;2022-09-29T07:29:20;99674.88;;;7.18;100.00
2673;BME280;1346;51.558;6.996;2022-09-29T07:31:47;99669.63;;;7.26;100.00
2673;BME280;1346;51.558;6.996;2022-09-29T07:34:17;99675.69;;;7.36;100.00
2673;BME280;1346;51.558;6.996;2022-09-29T07:36:44;99675.72;;;7.44;100.00
2673;BME280;1346;51.558;6.996;2022-09-29T07:39:11;99686.41;;;7.52;100.00
2673;BME280;1346;51.558;6.996;2022-09-29T07:41:39;99683.81;;;7.60;100.00
2673;BME280;1346;51.558;6.996;2022-09-29T07:44:06;99681.88;;;7.70;100.00
2673;BME280;1346;51.558;6.996;2022-09-29T07:46:33;99687.59;;;7.83;100.00
2673;BME280;1346;51.558;6.996;2022-09-29T07:49:00;99678.47;;;7.94;100.00
2673;BME280;1346;51.558;6.996;2022-09-29T07:51:27;99687.00;;;8.05;100.00
2673;BME280;1346;51.558;6.996;2022-09-29T07:53:54;99684.34;;;8.13;100.00
2673;BME280;1346;51.558;6.996;2022-09-29T07:56:22;99695.44;;;8.26;100.00
2673;BME280;1346;51.558;6.996;2022-09-29T07:58:50;99696.16;;;8.36;100.00
2673;BME280;1346;51.558;6.996;2022-09-29T08:01:18;99699.50;;;8.46;100.00
2673;BME280;1346;51.558;6.996;2022-09-29T08:03:50;99698.19;;;8.59;100.00
2673;BME280;1346;51.558;6.996;2022-09-29T08:06:18;99698.69;;;8.70;100.00
2673;BME280;1346;51.558;6.996;2022-09-29T08:08:46;99709.03;;;8.81;100.00
2673;BME280;1346;51.558;6.996;2022-09-29T08:11:16;99708.72;;;8.92;100.00
2673;BME280;1346;51.558;6.996;2022-09-29T08:13:44;99700.53;;;9.02;100.00
2673;BME280;1346;51.558;6.996;2022-09-29T08:16:14;99704.88;;;9.11;100.00
2673;BME280;1346;51.558;6.996;2022-09-29T08:18:41;99708.41;;;9.19;100.00
2673;BME280;1346;51.558;6.996;2022-09-29T08:21:10;99710.03;;;9.28;100.00
2673;BME280;1346;51.558;6.996;2022-09-29T08:23:39;99716.22;;;9.37;100.00
2673;BME280;1346;51.558;6.996;2022-09-29T08:26:09;99716.72;;;9.48;100.00
2673;BME280;1346;51.558;6.996;2022-09-29T08:28:37;99714.88;;;9.57;100.00
2673;BME280;1346;51.558;6.996;2022-09-29T08:31:07;99717.00;;;9.61;100.00
2673;BME280;1346;51.558;6.996;2022-09-29T08:33:36;99718.81;;;9.69;100.00
2673;BME280;1346;51.558;6.996;2022-09-29T08:36:05;99716.78;;;9.79;100.00
2673;BME280;1346;51.558;6.996;2022-09-29T08:38:40;99729.63;;;9.92;100.00
2673;BME280;1346;51.558;6.996;2022-09-29T08:41:21;99725.25;;;9.99;100.00
2673;BME280;1346;51.558;6.996;2022-09-29T08:43:51;99727.09;;;10.06;100.00
2673;BME280;1346;51.558;6.996;2022-09-29T08:46:25;99726.72;;;10.17;100.00
2673;BME280;1346;51.558;6.996;2022-09-29T08:48:56;99732.69;;;10.27;100.00
2673;BME280;1346;51.558;6.996;2022-09-29T08:51:30;99734.16;;;10.38;100.00
2673;BME280;1346;51.558;6.996;2022-09-29T08:54:06;99734.09;;;10.46;100.00
2673;BME280;1346;51.558;6.996;2022-09-29T08:56:34;99736.22;;;10.58;100.00
2673;BME280;1346;51.558;6.996;2022-09-29T08:59:01;99739.88;;;10.65;100.00
2673;BME280;1346;51.558;6.996;2022-09-29T09:01:32;99740.97;;;10.71;100.00
2673;BME280;1346;51.558;6.996;2022-09-29T09:04:35;99743.09;;;10.83;100.00
2673;BME280;1346;51.558;6.996;2022-09-29T09:07:12;99742.50;;;10.96;100.00
2673;BME280;1346;51.558;6.996;2022-09-29T09:09:59;99744.56;;;11.09;100.00
2673;BME280;1346;51.558;6.996;2022-09-29T09:13:08;99746.19;;;11.18;100.00
2673;BME280;1346;51.558;6.996;2022-09-29T09:16:05;99748.44;;;11.29;100.00
2673;BME280;1346;51.558;6.996;2022-09-29T09:18:58;99755.59;;;11.36;100.00
2673;BME280;1346;51.558;6.996;2022-09-29T09:21:39;99754.50;;;11.45;100.00
2673;BME280;1346;51.558;6.996;2022-09-29T09:24:16;99756.16;;;11.46;100.00
2673;BME280;1346;51.558;6.996;2022-09-29T09:26:47;99753.03;;;11.57;100.00
2673;BME280;1346;51.558;6.996;2022-09-29T09:29:21;99760.22;;;11.65;100.00
2673;BME280;1346;51.558;6.996;2022-09-29T09:31:56;99765.16;;;11.76;100.00
2673;BME280;1346;51.558;6.996;2022-09-29T09:34:31;99758.00;;;11.83;100.00
2673;BME280;1346;51.558;6.996;2022-09-29T09:37:06;99761.44;;;11.91;100.00
2673;BME280;1346;51.558;6.996;2022-09-29T09:39:36;99761.91;;;11.95;100.00
2673;BME280;1346;51.558;6.996;2022-09-29T09:42:13;99756.47;;;12.03;100.00
2673;BME280;1346;51.558;6.996;2022-09-29T09:44:46;99765.59;;;12.08;100.00
2673;BME280;1346;51.558;6.996;2022-09-29T09:47:24;99755.59;;;12.17;100.00
2673;BME280;1346;51.558;6.996;2022-09-29T09:49:56;99764.84;;;12.29;100.00
2673;BME280;1346;51.558;6.996;2022-09-29T09:52:30;99766.06;;;12.41;100.00
2673;BME280;1346;51.558;6.996;2022-09-29T09:55:01;99761.03;;;12.53;100.00
2673;BME280;1346;51.558;6.996;2022-09-29T09:58:05;99767.41;;;12.66;100.00
2673;BME280;1346;51.558;6.996;2022-09-29T10:00:38;99766.91;;;12.77;100.00
2673;BME280;1346;51.558;6.996;2022-09-29T10:03:08;99766.88;;;12.92;100.00
2673;BME280;1346;51.558;6.996;2022-09-29T10:05:39;99768.63;;;12.99;100.00
2673;BME280;1346;51.558;6.996;2022-09-29T10:08:12;99769.81;;;12.97;100.00
2673;BME280;1346;51.558;6.996;2022-09-29T10:10:42;99774.28;;;12.90;100.00
2673;BME280;1346;51.558;6.996;2022-09-29T10:13:13;99771.25;;;12.78;100.00
2673;BME280;1346;51.558;6.996;2022-09-29T10:15:44;99770.59;;;12.76;100.00
2673;BME280;1346;51.558;6.996;2022-09-29T10:18:17;99768.63;;;12.99;100.00
2673;BME280;1346;51.558;6.996;2022-09-29T10:20:45;99770.81;;;13.31;100.00
2673;BME280;1346;51.558;6.996;2022-09-29T10:23:31;99774.63;;;13.65;100.00
2673;BME280;1346;51.558;6.996;2022-09-29T10:26:11;99768.00;;;13.95;100.00
2673;BME280;1346;51.558;6.996;2022-09-29T10:28:43;99771.25;;;14.11;100.00
2673;BME280;1346;51.558;6.996;2022-09-29T10:31:21;99773.31;;;14.16;100.00
2673;BME280;1346;51.558;6.996;2022-09-29T10:33:53;99759.69;;;14.24;100.00
2673;BME280;1346;51.558;6.996;2022-09-29T10:36:22;99772.03;;;14.39;100.00
2673;BME280;1346;51.558;6.996;2022-09-29T10:38:52;99772.69;;;14.48;100.00
2673;BME280;1346;51.558;6.996;2022-09-29T10:41:20;99772.28;;;14.51;100.00
2673;BME280;1346;51.558;6.996;2022-09-29T10:43:50;99773.59;;;14.68;100.00
2673;BME280;1346;51.558;6.996;2022-09-29T10:46:47;99781.50;;;14.70;100.00
2673;BME280;1346;51.558;6.996;2022-09-29T10:49:18;99773.47;;;14.83;100.00
2673;BME280;1346;51.558;6.996;2022-09-29T10:51:58;99776.59;;;14.86;100.00
2673;BME280;1346;51.558;6.996;2022-09-29T10:54:31;99778.25;;;14.94;100.00
2673;BME280;1346;51.558;6.996;2022-09-29T10:56:59;99775.78;;;15.05;100.00
2673;BME280;1346;51.558;6.996;2022-09-29T10:59:46;99782.88;;;15.19;100.00
2673;BME280;1346;51.558;6.996;2022-09-29T11:02:22;99784.16;;;15.36;100.00
2673;BME280;1346;51.558;6.996;2022-09-29T11:04:51;99780.88;;;15.41;100.00
2673;BME280;1346;51.558;6.996;2022-09-29T11:07:19;99787.88;;;15.22;100.00
2673;BME280;1346;51.558;6.996;2022-09-29T11:09:48;99784.72;;;14.99;100.00
2673;BME280;1346;51.558;6.996;2022-09-29T11:12:30;99788.81;;;14.82;100.00
2673;BME280;1346;51.558;6.996;2022-09-29T11:14:58;99792.34;;;14.83;100.00
2673;BME280;1346;51.558;6.996;2022-09-29T11:17:27;99788.91;;;14.61;100.00
2673;BME280;1346;51.558;6.996;2022-09-29T11:19:57;99786.56;;;14.45;100.00
2673;BME280;1346;51.558;6.996;2022-09-29T11:23:03;99786.28;;;14.27;100.00
2673;BME280;1346;51.558;6.996;2022-09-29T11:25:57;99789.47;;;14.43;100.00
2673;BME280;1346;51.558;6.996;2022-09-29T11:29:09;99788.16;;;14.74;100.00
2673;BME280;1346;51.558;6.996;2022-09-29T11:31:50;99789.03;;;14.94;100.00
2673;BME280;1346;51.558;6.996;2022-09-29T11:35:17;99790.81;;;15.34;100.00
2673;BME280;1346;51.558;6.996;2022-09-29T11:38:09;99792.50;;;15.54;100.00
2673;BME280;1346;51.558;6.996;2022-09-29T11:40:56;99789.81;;;15.54;100.00
2673;BME280;1346;51.558;6.996;2022-09-29T11:43:41;99797.50;;;15.70;96.11
2673;BME280;1346;51.558;6.996;2022-09-29T11:46:40;99803.13;;;15.82;92.81
2673;BME280;1346;51.558;6.996;2022-09-29T11:49:52;99799.16;;;15.91;93.52
2673;BME280;1346;51.558;6.996;2022-09-29T11:52:42;99800.81;;;16.12;93.84
2673;BME280;1346;51.558;6.996;2022-09-29T11:55:29;99813.09;;;15.88;95.90
2673;BME280;1346;51.558;6.996;2022-09-29T11:58:13;99798.75;;;15.42;98.96
2673;BME280;1346;51.558;6.996;2022-09-29T12:00:56;99802.34;;;15.02;100.00
2673;BME280;1346;51.558;6.996;2022-09-29T12:03:37;99798.63;;;15.09;100.00
2673;BME280;1346;51.558;6.996;2022-09-29T12:06:23;99802.84;;;15.25;100.00
2673;BME280;1346;51.558;6.996;2022-09-29T12:09:10;99802.28;;;15.42;98.19
2673;BME280;1346;51.558;6.996;2022-09-29T12:11:48;99804.56;;;15.58;95.75
2673;BME280;1346;51.558;6.996;2022-09-29T12:14:27;99793.75;;;15.71;94.48
2673;BME280;1346;51.558;6.996;2022-09-29T12:17:02;99803.31;;;15.94;93.26
2673;BME280;1346;51.558;6.996;2022-09-29T12:19:35;99806.22;;;16.05;93.13
2673;BME280;1346;51.558;6.996;2022-09-29T12:22:03;99803.31;;;16.07;93.59
2673;BME280;1346;51.558;6.996;2022-09-29T12:24:35;99803.94;;;15.83;92.81
2673;BME280;1346;51.558;6.996;2022-09-29T12:27:07;99806.63;;;15.56;95.99
2673;BME280;1346;51.558;6.996;2022-09-29T12:29:42;99807.06;;;15.53;98.01
2673;BME280;1346;51.558;6.996;2022-09-29T12:32:16;99811.41;;;15.48;97.64
2673;BME280;1346;51.558;6.996;2022-09-29T12:34:48;99811.16;;;15.36;98.05
2673;BME280;1346;51.558;6.996;2022-09-29T12:37:22;99806.16;;;15.27;98.18
2673;BME280;1346;51.558;6.996;2022-09-29T12:40:02;99802.19;;;15.16;100.00
2673;BME280;1346;51.558;6.996;2022-09-29T12:42:47;99810.25;;;15.03;100.00
2673;BME280;1346;51.558;6.996;2022-09-29T12:45:25;99810.59;;;14.87;99.91
2673;BME280;1346;51.558;6.996;2022-09-29T12:48:06;99815.13;;;14.80;100.00
2673;BME280;1346;51.558;6.996;2022-09-29T12:50:43;99810.34;;;14.76;100.00
2673;BME280;1346;51.558;6.996;2022-09-29T12:53:18;99806.19;;;14.73;100.00
2673;BME280;1346;51.558;6.996;2022-09-29T12:55:52;99802.88;;;14.71;100.00
2673;BME280;1346;51.558;6.996;2022-09-29T12:58:24;99800.97;;;14.65;100.00
2673;BME280;1346;51.558;6.996;2022-09-29T13:01:05;99807.22;;;14.66;100.00
2673;BME280;1346;51.558;6.996;2022-09-29T13:07:13;99806.38;;;14.65;100.00
2673;BME280;1346;51.558;6.996;2022-09-29T13:10:21;99810.91;;;14.65;100.00
2673;BME280;1346;51.558;6.996;2022-09-29T13:13:20;99809.25;;;14.64;100.00
2673;BME280;1346;51.558;6.996;2022-09-29T13:16:04;99810.34;;;14.69;100.00
2673;BME280;1346;51.558;6.996;2022-09-29T13:19:18;99811.47;;;14.94;99.20
2673;BME280;1346;51.558;6.996;2022-09-29T13:22:00;99816.53;;;15.36;96.61
2673;BME280;1346;51.558;6.996;2022-09-29T13:24:44;99814.13;;;15.81;92.43
2673;BME280;1346;51.558;6.996;2022-09-29T13:27:31;99817.22;;;16.17;85.04
2673;BME280;1346;51.558;6.996;2022-09-29T13:30:05;99815.50;;;16.42;83.25
2673;BME280;1346;51.558;6.996;2022-09-29T13:32:41;99817.97;;;16.56;81.26
2673;BME280;1346;51.558;6.996;2022-09-29T13:35:13;99818.75;;;16.83;80.02
2673;BME280;1346;51.558;6.996;2022-09-29T13:37:49;99812.72;;;17.19;78.94
2673;BME280;1346;51.558;6.996;2022-09-29T13:40:23;99824.03;;;17.47;75.27
2673;BME280;1346;51.558;6.996;2022-09-29T13:42:53;99816.66;;;17.60;71.97
2673;BME280;1346;51.558;6.996;2022-09-29T13:45:40;99813.56;;;17.81;70.93
2673;BME280;1346;51.558;6.996;2022-09-29T13:48:49;99810.22;;;18.04;65.38
2673;BME280;1346;51.558;6.996;2022-09-29T13:51:46;99821.50;;;18.26;65.22
2673;BME280;1346;51.558;6.996;2022-09-29T13:54:29;99817.66;;;18.33;59.62
2673;BME280;1346;51.558;6.996;2022-09-29T13:57:19;99808.44;;;18.59;66.55
2673;BME280;1346;51.558;6.996;2022-09-29T14:05:54;99830.91;;;18.84;65.43
2673;BME280;1346;51.558;6.996;2022-09-29T14:08:27;99827.00;;;18.80;61.85